createdAt,value
2023-01-07T00:00:22.357Z,9.650
2023-01-07T00:01:31.470Z,9.400
2023-01-07T00:02:26.142Z,8.900
2023-01-07T00:03:21.482Z,10.200
2023-01-07T00:04:31.033Z,9.600
2023-01-07T00:05:28.072Z,9.300
2023-01-07T00:06:29.934Z,9.100
2023-01-07T00:07:28.105Z,8.500
2023-01-07T00:08:44.721Z,9.050
2023-01-07T00:09:25.781Z,9.000
2023-01-07T00:10:20.361Z,8.700
2023-01-07T00:11:21.672Z,8.050
2023-01-07T00:12:31.344Z,7.700
2023-01-07T00:13:23.184Z,8.300
2023-01-07T00:14:25.223Z,7.400
2023-01-07T00:15:29.469Z,7.500
2023-01-07T00:16:24.818Z,7.150
2023-01-07T00:17:20.980Z,7.400
2023-01-07T00:18:25.238Z,7.050
2023-01-07T00:19:25.724Z,6.650
2023-01-07T00:20:24.404Z,6.600
2023-01-07T00:21:32.197Z,6.550
2023-01-07T00:22:20.861Z,6.550
2023-01-07T00:23:24.177Z,6.100
2023-01-07T00:24:19.518Z,5.950
2023-01-07T00:25:27.216Z,6.300
2023-01-07T00:26:22.619Z,5.800
2023-01-07T00:27:23.759Z,6.000
2023-01-07T00:28:21.616Z,5.750
2023-01-07T00:29:21.540Z,5.900
2023-01-07T00:30:23.626Z,6.050
2023-01-07T00:31:19.942Z,5.400
2023-01-07T00:32:29.961Z,5.250
2023-01-07T00:33:27.371Z,5.200
2023-01-07T00:34:22.036Z,5.500
2023-01-07T00:35:26.324Z,5.900
2023-01-07T00:36:25.257Z,5.700
2023-01-07T00:37:23.302Z,6.200
2023-01-07T00:38:19.697Z,5.550
2023-01-07T00:39:32.714Z,5.400
2023-01-07T00:40:25.512Z,5.400
2023-01-07T00:41:21.260Z,5.400
2023-01-07T00:42:31.852Z,5.600
2023-01-07T00:43:26.626Z,5.300
2023-01-07T00:44:26.323Z,5.350
2023-01-07T00:45:19.610Z,5.000
2023-01-07T00:46:32.035Z,5.300
2023-01-07T00:47:22.330Z,5.950
2023-01-07T00:48:22.456Z,5.400
2023-01-07T00:49:34.100Z,5.200
2023-01-07T00:50:31.724Z,5.150
2023-01-07T00:51:21.066Z,5.200
2023-01-07T00:52:20.281Z,5.000
2023-01-07T00:53:29.891Z,5.050
2023-01-07T00:54:21.153Z,5.100
2023-01-07T00:55:22.017Z,5.200
2023-01-07T00:56:32.437Z,5.050
2023-01-07T00:57:30.034Z,4.850
2023-01-07T00:58:20.237Z,5.350
2023-01-07T00:59:19.620Z,5.000
2023-01-07T01:00:21.334Z,4.850
2023-01-07T01:01:30.491Z,5.050
2023-01-07T01:02:22.252Z,5.200
2023-01-07T01:03:33.058Z,5.200
2023-01-07T01:04:27.835Z,4.750
2023-01-07T01:05:23.873Z,5.100
2023-01-07T01:06:26.594Z,5.100
2023-01-07T01:07:23.477Z,5.000
2023-01-07T01:08:25.866Z,5.150
2023-01-07T01:09:22.575Z,5.600
2023-01-07T01:10:32.806Z,5.050
2023-01-07T01:11:23.051Z,5.700
2023-01-07T01:12:27.709Z,5.650
2023-01-07T01:13:20.055Z,5.700
2023-01-07T01:14:29.973Z,5.350
2023-01-07T01:15:20.686Z,5.450
2023-01-07T01:16:22.071Z,5.650
2023-01-07T01:17:29.458Z,6.000
2023-01-07T01:18:28.252Z,5.300
2023-01-07T01:19:25.316Z,5.700
2023-01-07T01:20:19.926Z,5.600
2023-01-07T01:21:23.432Z,5.800
2023-01-07T01:22:21.466Z,5.700
2023-01-07T01:23:26.140Z,5.850
2023-01-07T01:24:31.587Z,6.600
2023-01-07T01:25:28.752Z,6.500
2023-01-07T01:26:24.117Z,6.550
2023-01-07T01:27:20.580Z,6.300
2023-01-07T01:28:29.661Z,6.700
2023-01-07T01:29:20.641Z,7.150
2023-01-07T01:30:22.365Z,7.300
2023-01-07T01:31:33.952Z,7.600
2023-01-07T01:32:27.695Z,7.650
2023-01-07T01:33:25.628Z,7.700
2023-01-07T01:34:22.532Z,7.950
2023-01-07T01:35:31.770Z,7.950
2023-01-07T01:36:25.715Z,8.000
2023-01-07T01:37:23.332Z,7.600
2023-01-07T01:38:31.904Z,8.000
2023-01-07T01:39:22.914Z,7.700
2023-01-07T01:40:23.919Z,7.200
2023-01-07T01:41:19.681Z,8.300
2023-01-07T01:42:29.966Z,8.000
2023-01-07T01:43:26.037Z,7.800
2023-01-07T01:44:22.737Z,7.800
2023-01-07T01:45:24.621Z,7.100
2023-01-07T01:46:28.053Z,6.850
2023-01-07T01:47:24.912Z,6.000
2023-01-07T01:48:19.814Z,7.900
2023-01-07T01:49:30.115Z,7.300
2023-01-07T01:50:25.984Z,6.900
2023-01-07T01:51:23.663Z,8.500
2023-01-07T01:52:23.465Z,8.200
2023-01-07T01:53:21.635Z,9.100
2023-01-07T01:54:24.144Z,7.650
2023-01-07T01:55:19.691Z,7.900
2023-01-07T01:56:24.064Z,7.050
2023-01-07T01:57:27.271Z,7.450
2023-01-07T01:58:22.158Z,7.800
2023-01-07T01:59:23.388Z,7.650
2023-01-07T02:00:25.712Z,6.900
2023-01-07T02:01:27.392Z,6.500
2023-01-07T02:08:21.736Z,7.950
2023-01-07T02:12:27.650Z,8.200
2023-01-07T02:13:27.857Z,6.500
2023-01-07T02:14:19.729Z,8.400
2023-01-07T02:15:24.599Z,9.600
2023-01-07T02:16:20.170Z,9.000
2023-01-07T02:17:31.403Z,9.800
2023-01-07T02:18:26.005Z,9.900
2023-01-07T02:19:23.971Z,10.800
2023-01-07T02:20:32.346Z,10.100
2023-01-07T02:21:22.713Z,11.900
2023-01-07T02:22:24.377Z,9.200
2023-01-07T02:23:21.684Z,7.900
2023-01-07T02:24:22.998Z,10.650
2023-01-07T02:25:25.889Z,10.550
2023-01-07T02:26:22.018Z,9.400
2023-01-07T02:27:33.893Z,11.150
2023-01-07T02:28:27.838Z,8.900
2023-01-07T02:29:26.492Z,9.900
2023-01-07T02:30:20.191Z,9.400
2023-01-07T02:31:29.849Z,9.650
2023-01-07T02:32:20.671Z,10.800
2023-01-07T02:33:23.577Z,10.150
2023-01-07T02:34:33.097Z,9.700
2023-01-07T02:35:20.494Z,7.800
2023-01-07T02:36:24.123Z,8.400
2023-01-07T02:37:19.942Z,8.200
2023-01-07T02:38:24.923Z,7.750
2023-01-07T02:39:26.302Z,7.700
2023-01-07T02:40:21.909Z,6.500
2023-01-07T02:41:26.599Z,7.000
2023-01-07T02:42:29.657Z,7.050
2023-01-07T02:43:23.822Z,7.100
2023-01-07T02:44:21.394Z,6.800
2023-01-07T02:45:21.039Z,6.500
2023-01-07T02:46:20.220Z,6.500
2023-01-07T02:47:21.842Z,6.400
2023-01-07T02:48:33.294Z,6.050
2023-01-07T02:49:27.625Z,6.600
2023-01-07T02:50:25.149Z,6.000
2023-01-07T02:51:19.830Z,6.200
2023-01-07T02:52:22.911Z,6.050
2023-01-07T02:53:25.904Z,5.800
2023-01-07T02:54:22.111Z,5.300
2023-01-07T02:55:34.359Z,5.350
2023-01-07T02:56:28.764Z,5.450
2023-01-07T02:57:24.453Z,5.000
2023-01-07T02:58:21.529Z,5.300
2023-01-07T02:59:31.603Z,5.050
2023-01-07T03:00:23.041Z,5.300
2023-01-07T03:01:21.903Z,5.550
2023-01-07T03:02:31.943Z,5.100
2023-01-07T03:03:28.102Z,6.000
2023-01-07T03:04:24.355Z,5.900
2023-01-07T03:05:19.452Z,6.100
2023-01-07T03:06:30.043Z,6.200
2023-01-07T03:07:29.025Z,5.550
2023-01-07T03:08:24.914Z,5.900
2023-01-07T03:09:25.891Z,5.850
2023-01-07T03:10:29.827Z,5.550
2023-01-07T03:11:24.113Z,5.550
2023-01-07T03:12:19.712Z,5.300
2023-01-07T03:13:29.901Z,5.800
2023-01-07T03:14:26.062Z,5.900
2023-01-07T03:15:28.821Z,5.900
2023-01-07T03:16:22.000Z,5.800
2023-01-07T03:17:28.591Z,6.100
2023-01-07T03:18:25.253Z,6.150
2023-01-07T03:19:20.683Z,5.750
2023-01-07T03:20:20.922Z,5.800
2023-01-07T03:21:27.180Z,5.600
2023-01-07T03:22:22.315Z,5.400
2023-01-07T03:23:25.226Z,5.650
2023-01-07T03:24:28.123Z,6.050
2023-01-07T03:25:24.571Z,6.000
2023-01-07T03:26:20.783Z,6.250
2023-01-07T03:27:32.455Z,5.800
2023-01-07T03:28:26.069Z,5.900
2023-01-07T03:29:23.611Z,5.900
2023-01-07T03:30:26.632Z,5.650
2023-01-07T03:31:23.933Z,5.800
2023-01-07T03:32:25.463Z,5.750
2023-01-07T03:33:20.121Z,5.550
2023-01-07T03:34:29.855Z,5.700
2023-01-07T03:35:27.311Z,5.900
2023-01-07T03:36:22.131Z,5.800
2023-01-07T03:37:22.754Z,5.800
2023-01-07T03:38:23.088Z,5.450
2023-01-07T03:39:20.491Z,5.700
2023-01-07T03:40:20.038Z,5.450
2023-01-07T03:41:31.018Z,5.300
2023-01-07T03:42:26.399Z,5.600
2023-01-07T03:43:23.904Z,5.600
2023-01-07T03:44:24.466Z,5.250
2023-01-07T03:45:31.696Z,5.300
2023-01-07T03:46:23.858Z,5.500
2023-01-07T03:47:22.162Z,5.500
2023-01-07T03:48:22.005Z,5.350
2023-01-07T03:49:25.852Z,6.000
2023-01-07T03:50:23.600Z,5.800
2023-01-07T03:51:28.081Z,5.400
2023-01-07T03:52:28.298Z,5.600
2023-01-07T03:53:29.274Z,5.550
2023-01-07T03:54:20.963Z,5.600
2023-01-07T03:55:22.382Z,5.500
2023-01-07T03:56:25.751Z,6.000
2023-01-07T03:57:23.000Z,5.400
2023-01-07T03:58:34.130Z,5.700
2023-01-07T03:59:28.180Z,6.200
2023-01-07T04:00:23.455Z,5.400
2023-01-07T04:01:24.779Z,5.700
2023-01-07T04:02:25.516Z,5.800
2023-01-07T04:03:26.918Z,5.750
2023-01-07T04:04:24.222Z,5.600
2023-01-07T04:05:22.025Z,5.500
2023-01-07T04:06:20.339Z,5.300
2023-01-07T04:07:24.356Z,5.500
2023-01-07T04:08:21.598Z,5.600
2023-01-07T04:09:21.660Z,5.600
2023-01-07T04:10:26.189Z,5.700
2023-01-07T04:11:22.267Z,5.750
2023-01-07T04:12:33.748Z,5.600
2023-01-07T04:13:23.388Z,5.400
2023-01-07T04:14:26.304Z,5.450
2023-01-07T04:15:20.468Z,5.600
2023-01-07T04:16:25.882Z,5.600
2023-01-07T04:17:26.652Z,5.600
2023-01-07T04:18:22.159Z,5.800
2023-01-07T04:19:31.888Z,5.700
2023-01-07T04:20:28.708Z,5.750
2023-01-07T04:21:24.440Z,5.700
2023-01-07T04:22:21.842Z,5.100
2023-01-07T04:23:29.880Z,5.200
2023-01-07T04:24:22.856Z,4.700
2023-01-07T04:25:23.603Z,5.150
2023-01-07T04:26:34.118Z,5.250
2023-01-07T04:27:29.495Z,5.600
2023-01-07T04:28:24.025Z,5.800
2023-01-07T04:29:22.011Z,5.500
2023-01-07T04:30:35.274Z,5.550
2023-01-07T04:31:26.713Z,5.500
2023-01-07T04:32:22.123Z,5.250
2023-01-07T04:33:20.836Z,5.500
2023-01-07T04:34:29.939Z,5.350
2023-01-07T04:35:19.191Z,5.100
2023-01-07T04:36:21.829Z,5.300
2023-01-07T04:37:31.793Z,5.550
2023-01-07T04:38:30.667Z,5.100
2023-01-07T04:39:27.530Z,5.150
2023-01-07T04:40:32.514Z,5.350
2023-01-07T04:41:27.917Z,5.600
2023-01-07T04:42:25.454Z,5.400
2023-01-07T04:43:20.055Z,5.600
2023-01-07T04:44:29.789Z,5.600
2023-01-07T04:45:25.866Z,5.350
2023-01-07T04:46:22.835Z,5.200
2023-01-07T04:47:22.785Z,5.750
2023-01-07T04:48:29.629Z,5.800
2023-01-07T04:49:25.502Z,5.900
2023-01-07T04:50:22.655Z,6.000
2023-01-07T04:51:31.958Z,5.600
2023-01-07T04:52:25.964Z,5.500
2023-01-07T04:53:23.630Z,5.750
2023-01-07T04:54:24.854Z,5.500
2023-01-07T04:55:29.116Z,5.800
2023-01-07T04:56:23.899Z,5.500
2023-01-07T04:57:19.985Z,5.450
2023-01-07T04:58:30.244Z,5.200
2023-01-07T04:59:27.373Z,5.450
2023-01-07T05:00:24.175Z,5.300
2023-01-07T05:01:19.839Z,5.050
2023-01-07T05:02:21.564Z,5.150
2023-01-07T05:03:24.448Z,5.100
2023-01-07T05:04:21.217Z,5.150
2023-01-07T05:05:30.128Z,5.650
2023-01-07T05:06:27.984Z,5.600
2023-01-07T05:07:21.808Z,5.500
2023-01-07T05:08:33.800Z,5.350
2023-01-07T05:09:28.852Z,5.600
2023-01-07T05:10:24.291Z,5.600
2023-01-07T05:11:21.629Z,5.600
2023-01-07T05:12:30.132Z,5.400
2023-01-07T05:13:27.600Z,5.100
2023-01-07T05:14:22.354Z,5.800
2023-01-07T05:15:32.115Z,5.300
2023-01-07T05:16:31.495Z,5.500
2023-01-07T05:17:24.215Z,5.800
2023-01-07T05:18:26.352Z,5.550
2023-01-07T05:19:30.681Z,5.450
2023-01-07T05:20:26.803Z,5.200
2023-01-07T05:21:24.602Z,5.200
2023-01-07T05:22:19.118Z,5.250
2023-01-07T05:23:28.253Z,5.100
2023-01-07T05:24:28.968Z,5.500
2023-01-07T05:25:34.005Z,5.100
2023-01-07T05:26:30.082Z,5.150
2023-01-07T05:27:28.379Z,5.350
2023-01-07T05:28:22.156Z,4.900
2023-01-07T05:29:24.776Z,4.800
2023-01-07T05:30:28.614Z,4.950
2023-01-07T05:31:24.471Z,5.200
2023-01-07T05:32:21.433Z,5.200
2023-01-07T05:33:31.427Z,5.300
2023-01-07T05:34:25.998Z,5.250
2023-01-07T05:35:25.378Z,4.900
2023-01-07T05:36:25.725Z,5.400
2023-01-07T05:37:28.170Z,5.200
2023-01-07T05:38:25.199Z,5.600
2023-01-07T05:39:20.225Z,5.550
2023-01-07T05:40:21.482Z,5.800
2023-01-07T05:41:30.043Z,5.650
2023-01-07T05:42:22.100Z,5.300
2023-01-07T05:43:28.670Z,5.550
2023-01-07T05:44:29.969Z,5.450
2023-01-07T05:45:24.509Z,5.400
2023-01-07T05:46:22.000Z,5.700
2023-01-07T05:47:25.568Z,5.450
2023-01-07T05:48:26.116Z,5.700
2023-01-07T05:49:23.905Z,5.600
2023-01-07T05:50:33.701Z,5.800
2023-01-07T05:51:27.946Z,5.700
2023-01-07T05:52:28.205Z,5.650
2023-01-07T05:53:20.605Z,6.000
2023-01-07T05:54:28.224Z,5.900
2023-01-07T05:55:27.388Z,5.950
2023-01-07T05:56:22.351Z,5.900
2023-01-07T05:57:34.847Z,5.600
2023-01-07T05:58:22.842Z,5.550
2023-01-07T05:59:24.027Z,5.750
2023-01-07T06:00:21.131Z,5.700
2023-01-07T06:01:36.286Z,5.550
2023-01-07T06:02:27.342Z,5.500
2023-01-07T06:03:22.758Z,5.650
2023-01-07T06:04:32.271Z,5.700
2023-01-07T06:05:25.960Z,5.350
2023-01-07T06:06:24.336Z,5.450
2023-01-07T06:07:21.712Z,5.500
2023-01-07T06:08:34.626Z,5.450
2023-01-07T06:09:19.642Z,5.400
2023-01-07T06:10:25.595Z,5.350
2023-01-07T06:11:32.191Z,5.550
2023-01-07T06:12:28.660Z,5.600
2023-01-07T06:13:24.312Z,5.500
2023-01-07T06:14:20.342Z,5.450
2023-01-07T06:15:36.157Z,5.300
2023-01-07T06:16:22.637Z,5.550
2023-01-07T06:17:22.326Z,5.900
2023-01-07T06:18:23.527Z,5.650
2023-01-07T06:19:30.923Z,5.800
2023-01-07T06:20:24.775Z,5.450
2023-01-07T06:21:22.044Z,5.500
2023-01-07T06:22:31.959Z,5.400
2023-01-07T06:23:26.906Z,5.200
2023-01-07T06:24:22.234Z,5.350
2023-01-07T06:25:26.276Z,5.700
2023-01-07T06:26:30.805Z,5.300
2023-01-07T06:27:21.810Z,5.000
2023-01-07T06:28:21.748Z,4.850
2023-01-07T06:29:31.530Z,4.900
2023-01-07T06:30:28.787Z,5.100
2023-01-07T06:31:22.467Z,5.050
2023-01-07T06:32:28.390Z,4.800
2023-01-07T06:33:23.371Z,4.900
2023-01-07T06:34:24.179Z,4.900
2023-01-07T06:35:21.164Z,5.050
2023-01-07T06:36:29.996Z,4.500
2023-01-07T06:37:28.867Z,4.650
2023-01-07T06:38:22.850Z,4.800
2023-01-07T06:39:34.555Z,4.750
2023-01-07T06:40:25.012Z,4.750
2023-01-07T06:41:26.932Z,4.700
2023-01-07T06:42:20.175Z,4.600
2023-01-07T06:43:31.514Z,4.700
2023-01-07T06:44:26.154Z,4.850
2023-01-07T06:45:22.192Z,5.200
2023-01-07T06:46:32.507Z,4.500
2023-01-07T06:47:29.651Z,4.750
2023-01-07T06:48:25.222Z,4.400
2023-01-07T06:49:20.490Z,4.400
2023-01-07T06:50:29.907Z,4.600
2023-01-07T06:51:28.178Z,4.450
2023-01-07T06:52:24.691Z,4.350
2023-01-07T06:53:32.506Z,4.400
2023-01-07T06:54:30.404Z,4.450
2023-01-07T06:55:25.645Z,4.200
2023-01-07T06:56:23.252Z,4.350
2023-01-07T06:57:32.232Z,4.550
2023-01-07T06:58:26.677Z,4.650
2023-01-07T06:59:23.113Z,4.600
2023-01-07T07:00:36.215Z,4.350
2023-01-07T07:01:28.447Z,4.500
2023-01-07T07:02:25.170Z,4.350
2023-01-07T07:03:22.204Z,4.300
2023-01-07T07:04:19.921Z,4.200
2023-01-07T07:05:27.813Z,4.500
2023-01-07T07:06:22.114Z,4.300
2023-01-07T07:07:32.217Z,4.400
2023-01-07T07:08:29.621Z,4.350
2023-01-07T07:09:23.950Z,4.350
2023-01-07T07:10:21.631Z,4.500
2023-01-07T07:11:20.083Z,4.200
2023-01-07T07:12:26.458Z,4.200
2023-01-07T07:13:21.980Z,4.050
2023-01-07T07:14:20.613Z,4.250
2023-01-07T07:15:28.473Z,4.500
2023-01-07T07:16:26.389Z,4.500
2023-01-07T07:17:19.952Z,4.200
2023-01-07T07:18:25.264Z,4.200
2023-01-07T07:19:21.143Z,4.250
2023-01-07T07:20:22.393Z,4.000
2023-01-07T07:21:24.981Z,4.000
2023-01-07T07:22:29.965Z,4.250
2023-01-07T07:23:24.341Z,4.200
2023-01-07T07:24:22.021Z,4.100
2023-01-07T07:25:33.833Z,3.950
2023-01-07T07:26:20.613Z,4.200
2023-01-07T07:27:22.596Z,4.100
2023-01-07T07:28:28.772Z,4.100
2023-01-07T07:29:28.300Z,4.250
2023-01-07T07:30:45.608Z,4.000
2023-01-07T07:31:20.477Z,4.050
2023-01-07T07:32:21.739Z,4.000
2023-01-07T07:33:27.634Z,3.800
2023-01-07T07:34:22.841Z,3.800
2023-01-07T07:35:31.995Z,3.750
2023-01-07T07:36:29.912Z,3.650
2023-01-07T07:37:24.185Z,3.500
2023-01-07T07:38:21.564Z,3.500
2023-01-07T07:39:26.145Z,3.650
2023-01-07T07:40:30.077Z,3.250
2023-01-07T07:41:23.909Z,3.400
2023-01-07T07:42:21.608Z,3.200
2023-01-07T07:43:19.325Z,3.200
2023-01-07T07:44:25.973Z,2.800
2023-01-07T07:45:20.213Z,2.900
2023-01-07T07:46:30.146Z,3.000
2023-01-07T07:47:26.220Z,2.900
2023-01-07T07:48:22.851Z,2.800
2023-01-07T07:49:24.053Z,3.000
2023-01-07T07:50:23.378Z,3.000
2023-01-07T07:51:24.191Z,2.950
2023-01-07T07:52:21.636Z,3.000
2023-01-07T07:53:32.352Z,3.000
2023-01-07T07:54:26.065Z,2.800
2023-01-07T07:55:26.374Z,2.950
2023-01-07T07:56:24.299Z,2.950
2023-01-07T07:57:21.795Z,2.950
2023-01-07T07:58:24.776Z,3.300
2023-01-07T07:59:20.761Z,3.050
2023-01-07T08:00:30.444Z,3.100
2023-01-07T08:01:28.868Z,3.150
2023-01-07T08:02:22.251Z,3.100
2023-01-07T08:03:26.774Z,3.300
2023-01-07T08:04:20.924Z,3.450
2023-01-07T08:05:23.993Z,3.300
2023-01-07T08:06:20.198Z,3.700
2023-01-07T08:07:32.416Z,3.300
2023-01-07T08:08:26.465Z,3.100
2023-01-07T08:09:23.665Z,3.200
2023-01-07T08:10:34.819Z,3.400
2023-01-07T08:11:24.403Z,3.300
2023-01-07T08:12:26.571Z,3.350
2023-01-07T08:13:20.056Z,3.200
2023-01-07T08:14:31.549Z,3.300
2023-01-07T08:15:26.794Z,3.450
2023-01-07T08:16:22.201Z,3.200
2023-01-07T08:17:36.293Z,3.250
2023-01-07T08:18:28.294Z,3.100
2023-01-07T08:19:24.480Z,3.300
2023-01-07T08:20:20.570Z,3.600
2023-01-07T08:21:32.894Z,3.350
2023-01-07T08:22:26.813Z,3.600
2023-01-07T08:23:22.508Z,3.300
2023-01-07T08:24:33.917Z,3.450
2023-01-07T08:25:28.308Z,3.800
2023-01-07T08:26:31.667Z,3.800
2023-01-07T08:27:20.615Z,3.800
2023-01-07T08:28:32.413Z,4.150
2023-01-07T08:29:23.298Z,4.550
2023-01-07T08:30:24.554Z,4.600
2023-01-07T08:31:33.770Z,4.650
2023-01-07T08:32:28.269Z,4.800
2023-01-07T08:33:24.310Z,5.000
2023-01-07T08:34:23.794Z,5.400
2023-01-07T08:35:21.899Z,5.450
2023-01-07T08:36:26.377Z,5.450
2023-01-07T08:37:22.877Z,5.100
2023-01-07T08:38:33.467Z,5.350
2023-01-07T08:39:28.169Z,5.000
2023-01-07T08:40:21.284Z,5.000
2023-01-07T08:41:20.987Z,4.400
2023-01-07T08:42:26.331Z,4.550
2023-01-07T08:43:26.232Z,4.600
2023-01-07T08:44:22.324Z,4.300
2023-01-07T08:45:33.009Z,4.250
2023-01-07T08:46:24.608Z,4.600
2023-01-07T08:47:24.300Z,4.700
2023-01-07T08:48:20.907Z,4.600
2023-01-07T08:49:23.243Z,4.350
2023-01-07T08:50:27.865Z,4.700
2023-01-07T08:51:22.627Z,4.700
2023-01-07T08:52:30.868Z,4.600
2023-01-07T08:53:28.020Z,4.800
2023-01-07T08:54:25.757Z,4.900
2023-01-07T08:55:20.472Z,5.000
2023-01-07T08:56:26.268Z,4.700
2023-01-07T08:57:22.574Z,4.950
2023-01-07T08:58:22.148Z,5.050
2023-01-07T08:59:32.692Z,4.900
2023-01-07T09:00:29.492Z,5.050
2023-01-07T09:01:26.914Z,4.950
2023-01-07T09:02:20.585Z,5.000
2023-01-07T09:03:27.275Z,5.100
2023-01-07T09:04:26.106Z,5.350
2023-01-07T09:05:22.192Z,5.700
2023-01-07T09:06:21.995Z,5.250
2023-01-07T09:07:28.506Z,5.800
2023-01-07T09:08:24.082Z,5.800
2023-01-07T09:09:22.247Z,6.350
2023-01-07T09:10:32.112Z,5.950
2023-01-07T09:11:27.121Z,5.800
2023-01-07T09:12:24.514Z,5.500
2023-01-07T09:13:25.081Z,5.550
2023-01-07T09:14:25.651Z,5.200
2023-01-07T09:15:24.724Z,5.600
2023-01-07T09:16:22.069Z,5.500
2023-01-07T09:17:19.914Z,5.500
2023-01-07T09:18:26.556Z,5.100
2023-01-07T09:19:24.632Z,5.400
2023-01-07T09:20:29.678Z,5.100
2023-01-07T09:21:19.461Z,5.250
2023-01-07T09:22:24.505Z,5.200
2023-01-07T09:23:22.216Z,5.050
2023-01-07T09:24:22.421Z,5.150
2023-01-07T09:25:20.194Z,5.000
2023-01-07T09:26:25.240Z,5.000
2023-01-07T09:27:21.803Z,5.000
2023-01-07T09:28:24.265Z,5.300
2023-01-07T09:29:25.070Z,4.800
2023-01-07T09:30:20.527Z,5.150
2023-01-07T09:31:25.687Z,5.000
2023-01-07T09:32:28.276Z,5.050
2023-01-07T09:33:22.478Z,4.900
2023-01-07T09:34:25.342Z,4.950
2023-01-07T09:35:20.360Z,4.800
2023-01-07T09:36:21.224Z,4.850
2023-01-07T09:37:20.501Z,4.800
2023-01-07T09:38:31.751Z,4.750
2023-01-07T09:39:26.391Z,4.800
2023-01-07T09:40:24.026Z,4.700
2023-01-07T09:41:32.191Z,4.650
2023-01-07T09:42:23.466Z,4.400
2023-01-07T09:43:25.367Z,4.600
2023-01-07T09:44:20.582Z,4.300
2023-01-07T09:45:31.737Z,4.850
2023-01-07T09:46:28.452Z,4.550
2023-01-07T09:47:22.905Z,4.400
2023-01-07T09:48:27.376Z,4.400
2023-01-07T09:49:28.300Z,4.150
2023-01-07T09:50:25.250Z,4.300
2023-01-07T09:51:22.467Z,4.000
2023-01-07T09:52:32.457Z,4.100
2023-01-07T09:53:21.480Z,3.900
2023-01-07T09:54:23.650Z,3.650
2023-01-07T09:55:34.253Z,3.850
2023-01-07T09:56:32.590Z,3.700
2023-01-07T09:57:24.225Z,3.700
2023-01-07T09:58:20.330Z,3.650
2023-01-07T09:59:20.160Z,3.800
2023-01-07T10:00:26.354Z,3.300
2023-01-07T10:01:22.672Z,3.250
2023-01-07T10:02:32.533Z,3.200
2023-01-07T10:03:28.089Z,2.900
2023-01-07T10:04:19.629Z,3.100
2023-01-07T10:05:33.256Z,3.150
2023-01-07T10:06:41.977Z,3.000
2023-01-07T10:07:27.703Z,2.750
2023-01-07T10:08:39.006Z,3.000
2023-01-07T10:09:34.722Z,2.950
2023-01-07T10:10:21.743Z,3.100
2023-01-07T10:11:25.154Z,3.000
2023-01-07T10:12:20.226Z,3.100
2023-01-07T10:13:32.127Z,3.200
2023-01-07T10:14:21.267Z,3.100
2023-01-07T10:15:22.127Z,3.100
2023-01-07T10:16:26.462Z,3.300
2023-01-07T10:17:29.949Z,3.150
2023-01-07T10:18:25.680Z,3.300
2023-01-07T10:19:30.231Z,3.250
2023-01-07T10:20:21.624Z,3.200
2023-01-07T10:21:26.502Z,3.300
2023-01-07T10:22:22.336Z,3.300
2023-01-07T10:23:33.453Z,2.900
2023-01-07T10:24:29.808Z,2.800
2023-01-07T10:25:24.586Z,2.900
2023-01-07T10:26:20.176Z,2.800
2023-01-07T10:27:25.627Z,2.900
2023-01-07T10:28:27.780Z,2.750
2023-01-07T10:29:23.993Z,2.900
2023-01-07T10:30:33.704Z,2.850
2023-01-07T10:31:28.467Z,2.650
2023-01-07T10:32:24.540Z,2.700
2023-01-07T10:33:20.058Z,2.450
2023-01-07T10:34:30.444Z,2.750
2023-01-07T10:35:24.687Z,2.700
2023-01-07T10:36:22.265Z,2.750
2023-01-07T10:37:20.345Z,2.500
2023-01-07T10:38:21.346Z,2.700
2023-01-07T10:39:36.607Z,2.750
2023-01-07T10:40:21.713Z,2.600
2023-01-07T10:41:30.320Z,2.550
2023-01-07T10:42:26.299Z,2.750
2023-01-07T10:43:23.810Z,2.900
2023-01-07T10:44:27.030Z,2.650
2023-01-07T10:45:29.111Z,2.600
2023-01-07T10:46:38.544Z,2.900
2023-01-07T10:47:20.436Z,2.800
2023-01-07T10:48:45.371Z,2.700
2023-01-07T10:49:26.314Z,2.900
2023-01-07T10:50:23.567Z,2.800
2023-01-07T10:51:20.511Z,2.850
2023-01-07T10:52:22.087Z,2.800
2023-01-07T10:53:42.359Z,2.850
2023-01-07T10:54:22.938Z,3.100
2023-01-07T10:55:22.335Z,2.800
2023-01-07T10:56:27.958Z,2.800
2023-01-07T10:57:23.209Z,2.900
2023-01-07T10:58:24.287Z,2.900
2023-01-07T10:59:26.114Z,2.850
2023-01-07T11:00:43.730Z,2.800
2023-01-07T11:01:27.407Z,2.750
2023-01-07T11:02:30.869Z,2.800
2023-01-07T11:03:27.904Z,2.700
2023-01-07T11:04:31.174Z,2.600
2023-01-07T11:05:27.170Z,2.750
2023-01-07T11:06:30.189Z,3.000
2023-01-07T11:07:33.185Z,2.700
2023-01-07T11:08:34.043Z,2.600
2023-01-07T11:09:20.679Z,2.600
2023-01-07T11:10:26.221Z,2.600
2023-01-07T11:11:40.768Z,2.600
2023-01-07T11:12:25.297Z,2.650
2023-01-07T11:13:21.376Z,2.700
2023-01-07T11:14:28.560Z,2.750
2023-01-07T11:15:22.117Z,2.800
2023-01-07T11:16:23.859Z,2.900
2023-01-07T11:17:26.185Z,2.700
2023-01-07T11:18:30.101Z,2.950
2023-01-07T11:19:33.934Z,2.800
2023-01-07T11:20:26.019Z,3.100
2023-01-07T11:21:43.751Z,2.900
2023-01-07T11:22:24.915Z,3.000
2023-01-07T11:23:22.487Z,3.350
2023-01-07T11:24:34.694Z,3.300
2023-01-07T11:25:22.469Z,3.600
2023-01-07T11:26:38.906Z,3.500
2023-01-07T11:27:22.983Z,3.450
2023-01-07T11:28:24.688Z,3.600
2023-01-07T11:29:20.911Z,3.500
2023-01-07T11:30:22.446Z,3.300
2023-01-07T11:31:56.108Z,3.300
2023-01-07T11:32:49.027Z,3.450
2023-01-07T11:34:01.786Z,3.300
2023-01-07T11:34:24.745Z,3.400
2023-01-07T11:35:28.019Z,3.200
2023-01-07T11:36:20.871Z,3.400
2023-01-07T11:37:27.448Z,3.300
2023-01-07T11:38:19.809Z,3.200
2023-01-07T11:39:54.834Z,3.700
2023-01-07T11:40:23.326Z,3.100
2023-01-07T11:41:28.911Z,3.200
2023-01-07T11:42:30.335Z,3.000
2023-01-07T11:43:24.942Z,3.000
2023-01-07T11:44:36.924Z,3.350
2023-01-07T11:45:23.801Z,3.900
2023-01-07T11:46:29.180Z,3.750
2023-01-07T11:47:44.877Z,3.100
2023-01-07T11:48:33.984Z,3.400
2023-01-07T11:49:34.426Z,3.100
2023-01-07T11:50:29.123Z,3.150
2023-01-07T11:51:21.699Z,3.000
2023-01-07T11:52:27.935Z,3.100
2023-01-07T11:53:20.589Z,3.200
2023-01-07T11:54:48.788Z,3.150
2023-01-07T11:55:34.773Z,3.200
2023-01-07T11:56:21.443Z,3.000
2023-01-07T11:57:27.330Z,2.900
2023-01-07T11:58:29.662Z,3.000
2023-01-07T11:59:28.917Z,3.200
2023-01-07T12:00:26.788Z,2.950
2023-01-07T12:01:52.133Z,3.050
2023-01-07T12:02:37.727Z,3.400
2023-01-07T12:03:25.872Z,2.900
2023-01-07T12:04:36.743Z,3.200
2023-01-07T12:05:29.931Z,2.900
2023-01-07T12:06:22.806Z,2.900
2023-01-07T12:07:29.639Z,3.000
2023-01-07T12:08:22.565Z,2.800
2023-01-07T12:09:36.708Z,2.900
2023-01-07T12:10:26.905Z,2.800
2023-01-07T12:11:41.147Z,3.050
2023-01-07T12:12:33.780Z,3.000
2023-01-07T12:13:25.658Z,2.800
2023-01-07T12:14:23.088Z,2.900
2023-01-07T12:15:26.786Z,3.300
2023-01-07T12:16:20.770Z,2.800
2023-01-07T12:17:30.873Z,2.800
2023-01-07T12:18:21.129Z,3.000
2023-01-07T12:19:40.785Z,2.750
2023-01-07T12:20:26.166Z,2.800
2023-01-07T12:21:26.942Z,2.900
2023-01-07T12:22:31.067Z,2.900
2023-01-07T12:23:24.531Z,2.950
2023-01-07T12:24:32.700Z,3.000
2023-01-07T12:25:19.752Z,3.050
2023-01-07T12:26:41.957Z,2.900
2023-01-07T12:27:34.969Z,3.000
2023-01-07T12:28:29.940Z,3.200
2023-01-07T12:29:39.601Z,3.150
2023-01-07T12:30:49.972Z,3.200
2023-01-07T12:31:23.067Z,2.900
2023-01-07T12:32:22.788Z,3.000
2023-01-07T12:33:46.719Z,3.100
2023-01-07T12:34:44.923Z,3.100
2023-01-07T12:35:31.874Z,2.900
2023-01-07T12:36:23.402Z,3.000
2023-01-07T12:37:36.050Z,3.000
2023-01-07T12:38:26.971Z,3.100
2023-01-07T12:39:26.079Z,3.250
2023-01-07T12:40:50.097Z,3.200
2023-01-07T12:41:43.486Z,3.200
2023-01-07T12:42:27.005Z,2.900
2023-01-07T12:43:22.090Z,3.000
2023-01-07T12:44:20.733Z,3.100
2023-01-07T12:45:31.770Z,3.000
2023-01-07T12:46:24.139Z,2.900
2023-01-07T12:47:54.647Z,2.900
2023-01-07T12:48:33.001Z,2.900
2023-01-07T12:49:38.297Z,2.750
2023-01-07T12:50:25.094Z,2.700
2023-01-07T12:51:24.223Z,2.850
2023-01-07T12:52:34.527Z,3.100
2023-01-07T12:53:23.321Z,2.900
2023-01-07T12:54:20.341Z,2.650
2023-01-07T12:55:49.513Z,2.600
2023-01-07T12:56:44.196Z,2.850
2023-01-07T12:57:28.108Z,2.800
2023-01-07T12:58:28.992Z,2.700
2023-01-07T12:59:46.019Z,2.750
2023-01-07T13:00:31.324Z,2.500
2023-01-07T13:01:24.765Z,2.600